Time,TemperatureF,DewpointF,PressureIn,WindDirection,WindDirectionDegrees,WindSpeedMPH,WindSpeedGustMPH,Humidity,HourlyPrecipIn,Conditions,Clouds,dailyrainin,SolarRadiationWatts/m^2,SoftwareType,DateUTC
2013-08-04 00:01:00,54.4,50.6,30.19,NE,37,0.0,0.0,87,0.00,,SCT,0.00,0.00,VWS V14.01,2013-08-04 05:01:00,
2013-08-04 00:06:00,54.2,50.4,30.19,NE,37,0.0,0.0,87,0.00,,SCT,0.00,0.00,VWS V14.01,2013-08-04 05:06:00,
2013-08-04 00:11:00,54.0,50.2,30.19,NE,36,0.0,0.0,87,0.00,,SCT,0.00,0.00,VWS V14.01,2013-08-04 05:11:00,
2013-08-04 00:16:00,53.9,50.4,30.19,NE,36,0.0,0.0,88,0.00,,SCT,0.00,0.00,VWS V14.01,2013-08-04 05:16:00,
2013-08-04 00:22:00,53.6,50.1,30.20,NE,36,0.0,0.0,88,0.00,,SCT,0.00,0.00,VWS V14.01,2013-08-04 05:22:00,
2013-08-04 00:27:00,53.4,49.6,30.20,NE,36,0.0,0.0,87,0.00,,SCT,0.00,0.00,VWS V14.01,2013-08-04 05:27:00,
2013-08-04 00:32:00,53.2,49.7,30.20,NE,37,0.0,0.0,88,0.00,,SCT,0.00,0.00,VWS V14.01,2013-08-04 05:32:00,
2013-08-04 00:37:00,53.0,49.5,30.20,NE,37,0.0,0.0,88,0.00,,SCT,0.00,0.00,VWS V14.01,2013-08-04 05:37:00,
2013-08-04 00:42:00,52.7,49.2,30.20,NE,37,0.0,0.0,88,0.00,,SCT,0.00,0.00,VWS V14.01,2013-08-04 05:42:00,
2013-08-04 00:47:00,52.5,49.0,30.20,NE,37,0.0,0.0,88,0.00,,SCT,0.00,0.00,VWS V14.01,2013-08-04 05:47:00,
2013-08-04 00:52:00,52.4,49.0,30.20,NE,37,0.0,0.0,88,0.00,,SCT,0.00,0.00,VWS V14.01,2013-08-04 05:52:00,
2013-08-04 00:57:00,52.2,48.8,30.20,NE,36,0.0,0.0,88,0.00,,SCT,0.00,0.00,VWS V14.01,2013-08-04 05:57:00,
2013-08-04 01:02:00,52.1,48.7,30.20,NE,37,0.0,0.0,88,0.00,,SCT,0.00,0.00,VWS V14.01,2013-08-04 06:02:00,
2013-08-04 01:07:00,51.9,48.8,30.20,NE,36,0.0,0.0,89,0.00,,SCT,0.00,0.00,VWS V14.01,2013-08-04 06:07:00,
2013-08-04 01:12:00,51.8,48.7,30.21,NE,36,0.0,0.0,89,0.00,,SCT,0.00,0.00,VWS V14.01,2013-08-04 06:12:00,
2013-08-04 01:17:00,51.6,48.5,30.21,NE,37,0.0,0.0,89,0.00,,SCT,0.00,0.00,VWS V14.01,2013-08-04 06:17:00,
2013-08-04 01:22:00,51.5,48.4,30.21,NE,36,0.0,0.0,89,0.00,,SCT,0.00,0.00,VWS V14.01,2013-08-04 06:22:00,
2013-08-04 01:28:00,51.4,48.3,30.21,NE,36,0.0,0.0,89,0.00,,SCT,0.00,0.00,VWS V14.01,2013-08-04 06:28:00,
2013-08-04 01:33:00,51.4,48.3,30.22,NE,37,0.0,0.0,89,0.00,,SCT,0.00,0.00,VWS V14.01,2013-08-04 06:33:00,
2013-08-04 01:38:00,51.4,48.3,30.22,NE,37,0.0,0.0,89,0.00,,SCT,0.00,0.00,VWS V14.01,2013-08-04 06:38:00,
2013-08-04 01:43:00,51.3,48.2,30.22,NE,37,0.0,0.0,89,0.00,,SCT,0.00,0.00,VWS V14.01,2013-08-04 06:43:00,
2013-08-04 01:48:00,51.2,48.1,30.21,NE,37,0.0,0.0,89,0.00,,SCT,0.00,0.00,VWS V14.01,2013-08-04 06:48:00,
2013-08-04 01:53:00,51.1,48.0,30.22,NE,37,0.0,0.0,89,0.00,,SCT,0.00,0.00,VWS V14.01,2013-08-04 06:53:00,
2013-08-04 01:58:00,51.0,47.9,30.22,NE,36,0.0,0.0,89,0.00,,SCT,0.00,0.00,VWS V14.01,2013-08-04 06:58:00,
2013-08-04 02:03:00,50.9,48.1,30.22,NE,37,0.0,0.0,90,0.00,,SCT,0.00,0.00,VWS V14.01,2013-08-04 07:03:00,
2013-08-04 02:09:00,50.6,47.5,30.21,NE,37,0.0,0.0,89,0.00,,SCT,0.00,0.00,VWS V14.01,2013-08-04 07:09:00,
2013-08-04 02:14:00,50.4,47.3,30.22,NE,37,0.0,0.0,89,0.00,,SCT,0.00,0.00,VWS V14.01,2013-08-04 07:14:00,
2013-08-04 02:19:00,50.3,47.5,30.22,NE,37,0.0,0.0,90,0.00,,SCT,0.00,0.00,VWS V14.01,2013-08-04 07:19:00,
2013-08-04 02:24:00,50.1,47.3,30.23,NE,37,0.0,0.0,90,0.00,,SCT,0.00,0.00,VWS V14.01,2013-08-04 07:24:00,
2013-08-04 02:29:00,50.0,47.2,30.23,NE,36,0.0,0.0,90,0.00,,SCT,0.00,0.00,VWS V14.01,2013-08-04 07:29:00,
2013-08-04 02:35:00,49.9,47.1,30.22,NE,37,0.0,0.0,90,0.00,,SCT,0.00,0.00,VWS V14.01,2013-08-04 07:35:00,
2013-08-04 02:40:00,49.9,47.1,30.22,NE,36,0.0,0.0,90,0.00,,SCT,0.00,0.00,VWS V14.01,2013-08-04 07:40:00,
2013-08-04 02:45:00,50.0,47.2,30.22,NE,36,0.0,0.0,90,0.00,,SCT,0.00,0.00,VWS V14.01,2013-08-04 07:45:00,
2013-08-04 02:50:00,49.9,47.1,30.23,NE,36,0.0,0.0,90,0.00,,SCT,0.00,0.00,VWS V14.01,2013-08-04 07:50:00,
2013-08-04 02:55:00,49.8,47.0,30.22,NE,37,0.0,0.0,90,0.00,,SCT,0.00,0.00,VWS V14.01,2013-08-04 07:55:00,
2013-08-04 03:00:00,49.7,46.9,30.22,NE,36,0.0,0.0,90,0.00,,SCT,0.00,0.00,VWS V14.01,2013-08-04 08:00:00,
2013-08-04 03:05:00,49.5,46.7,30.22,NE,37,0.0,0.0,90,0.00,,SCT,0.00,0.00,VWS V14.01,2013-08-04 08:05:00,
2013-08-04 03:10:00,49.2,46.4,30.22,NE,36,0.0,0.0,90,0.00,,SCT,0.00,0.00,VWS V14.01,2013-08-04 08:10:00,
2013-08-04 03:16:00,49.1,46.3,30.22,NE,37,0.0,0.0,90,0.00,,SCT,0.00,0.00,VWS V14.01,2013-08-04 08:16:00,
2013-08-04 03:21:00,49.0,46.2,30.22,NE,37,0.0,0.0,90,0.00,,SCT,0.00,0.00,VWS V14.01,2013-08-04 08:21:00,
2013-08-04 03:26:00,48.9,46.1,30.22,NE,37,0.0,0.0,90,0.00,,SCT,0.00,0.00,VWS V14.01,2013-08-04 08:26:00,
2013-08-04 03:31:00,48.7,45.9,30.22,NE,37,0.0,0.0,90,0.00,,SCT,0.00,0.00,VWS V14.01,2013-08-04 08:31:00,
2013-08-04 03:36:00,48.6,45.8,30.22,NE,37,0.0,0.0,90,0.00,,SCT,0.00,0.00,VWS V14.01,2013-08-04 08:36:00,
2013-08-04 03:41:00,48.5,45.7,30.22,NE,37,0.0,0.0,90,0.00,,SCT,0.00,0.00,VWS V14.01,2013-08-04 08:41:00,
2013-08-04 03:46:00,48.4,45.6,30.22,NE,36,0.0,0.0,90,0.00,,SCT,0.00,0.00,VWS V14.01,2013-08-04 08:46:00,
2013-08-04 03:51:00,48.3,45.5,30.22,NE,36,0.0,0.0,90,0.00,,SCT,0.00,0.00,VWS V14.01,2013-08-04 08:51:00,
2013-08-04 03:56:00,48.3,45.5,30.22,NE,37,0.0,0.0,90,0.00,,SCT,0.00,0.00,VWS V14.01,2013-08-04 08:56:00,
2013-08-04 04:01:00,48.3,45.8,30.22,NE,37,0.0,0.0,91,0.00,,SCT,0.00,0.00,VWS V14.01,2013-08-04 09:01:00,
2013-08-04 04:06:00,48.2,45.7,30.21,NE,37,0.0,0.0,91,0.00,,SCT,0.00,0.00,VWS V14.01,2013-08-04 09:06:00,
2013-08-04 04:12:00,48.1,45.6,30.21,NE,37,0.0,0.0,91,0.00,,SCT,0.00,0.00,VWS V14.01,2013-08-04 09:12:00,
2013-08-04 04:17:00,48.1,45.6,30.22,NE,36,0.0,0.0,91,0.00,,SCT,0.00,0.00,VWS V14.01,2013-08-04 09:17:00,
2013-08-04 04:22:00,48.0,45.5,30.21,NE,36,0.0,0.0,91,0.00,,SCT,0.00,0.00,VWS V14.01,2013-08-04 09:22:00,
2013-08-04 04:27:00,47.8,45.3,30.22,NE,37,0.0,0.0,91,0.00,,SCT,0.00,0.00,VWS V14.01,2013-08-04 09:27:00,
2013-08-04 04:32:00,47.6,44.8,30.21,NE,37,0.0,0.0,90,0.00,,SCT,0.00,0.00,VWS V14.01,2013-08-04 09:32:00,
2013-08-04 04:37:00,47.4,44.6,30.22,NE,37,0.0,0.0,90,0.00,,SCT,0.00,0.00,VWS V14.01,2013-08-04 09:37:00,
2013-08-04 04:42:00,47.4,44.9,30.22,NE,36,0.0,0.0,91,0.00,,SCT,0.00,0.00,VWS V14.01,2013-08-04 09:42:00,
2013-08-04 04:47:00,47.3,44.8,30.21,NE,36,0.0,0.0,91,0.00,,SCT,0.00,0.00,VWS V14.01,2013-08-04 09:47:00,
2013-08-04 04:53:00,47.2,44.7,30.21,NE,36,0.0,0.0,91,0.00,,SCT,0.00,0.00,VWS V14.01,2013-08-04 09:53:00,
2013-08-04 04:58:00,47.1,44.6,30.21,NE,37,0.0,0.0,91,0.00,,SCT,0.00,0.00,VWS V14.01,2013-08-04 09:58:00,
2013-08-04 05:03:00,47.0,44.2,30.21,NE,37,0.0,0.0,90,0.00,,SCT,0.00,0.00,VWS V14.01,2013-08-04 10:03:00,
2013-08-04 05:08:00,46.9,44.4,30.21,NE,36,0.0,0.0,91,0.00,,SCT,0.00,0.00,VWS V14.01,2013-08-04 10:08:00,
2013-08-04 05:13:00,46.9,44.4,30.21,NE,37,0.0,0.0,91,0.00,,SCT,0.00,0.00,VWS V14.01,2013-08-04 10:13:00,
2013-08-04 05:18:00,46.8,44.3,30.21,NE,37,0.0,0.0,91,0.00,,SCT,0.00,0.00,VWS V14.01,2013-08-04 10:18:00,
2013-08-04 05:23:00,46.8,44.3,30.21,NE,37,0.0,0.0,91,0.00,,SCT,0.00,0.00,VWS V14.01,2013-08-04 10:23:00,
2013-08-04 05:28:00,46.7,44.2,30.21,NE,37,0.0,0.0,91,0.00,,SCT,0.00,0.00,VWS V14.01,2013-08-04 10:28:00,
2013-08-04 05:33:00,46.6,44.1,30.21,NE,36,0.0,0.0,91,0.00,,SCT,0.00,0.00,VWS V14.01,2013-08-04 10:33:00,
2013-08-04 05:38:00,46.5,44.0,30.22,NE,37,0.0,0.0,91,0.00,,SCT,0.00,0.00,VWS V14.01,2013-08-04 10:38:00,
2013-08-04 05:43:00,46.4,43.9,30.22,NE,36,0.0,0.0,91,0.00,,SCT,0.00,0.00,VWS V14.01,2013-08-04 10:43:00,
2013-08-04 05:49:00,46.4,43.9,30.22,NE,37,0.0,0.0,91,0.00,,SCT,0.00,0.00,VWS V14.01,2013-08-04 10:49:00,
2013-08-04 05:54:00,46.5,44.0,30.22,NE,37,0.0,0.0,91,0.00,,SCT,0.00,0.00,VWS V14.01,2013-08-04 10:54:00,
2013-08-04 05:59:00,46.6,44.1,30.22,NE,36,0.0,0.0,91,0.00,,SCT,0.00,5.00,VWS V14.01,2013-08-04 10:59:00,
2013-08-04 06:04:00,46.5,44.0,30.22,NE,37,0.0,0.0,91,0.00,,SCT,0.00,7.00,VWS V14.01,2013-08-04 11:04:00,
2013-08-04 06:09:00,46.5,44.0,30.22,NE,36,0.0,0.0,91,0.00,,SCT,0.00,9.00,VWS V14.01,2013-08-04 11:09:00,
2013-08-04 06:14:00,46.5,44.0,30.22,NE,37,0.0,0.0,91,0.00,,SCT,0.00,11.00,VWS V14.01,2013-08-04 11:14:00,
2013-08-04 06:19:00,46.4,43.9,30.21,NE,36,0.0,0.0,91,0.00,,SCT,0.00,14.00,VWS V14.01,2013-08-04 11:19:00,
2013-08-04 06:24:00,46.4,43.9,30.22,NE,37,0.0,0.0,91,0.00,,SCT,0.00,14.00,VWS V14.01,2013-08-04 11:24:00,
2013-08-04 06:30:00,46.3,43.8,30.22,NE,37,0.0,0.0,91,0.00,,SCT,0.00,16.00,VWS V14.01,2013-08-04 11:30:00,
2013-08-04 06:35:00,46.3,43.8,30.22,NE,36,0.0,0.0,91,0.00,,SCT,0.00,16.00,VWS V14.01,2013-08-04 11:35:00,
2013-08-04 06:40:00,46.3,43.8,30.22,NE,36,0.0,0.0,91,0.00,,SCT,0.00,18.00,VWS V14.01,2013-08-04 11:40:00,
2013-08-04 06:45:00,46.4,43.9,30.23,NE,36,0.0,0.0,91,0.00,,SCT,0.00,19.00,VWS V14.01,2013-08-04 11:45:00,
2013-08-04 06:50:00,46.5,44.3,30.23,NE,36,0.0,0.0,92,0.00,,SCT,0.00,19.00,VWS V14.01,2013-08-04 11:50:00,
2013-08-04 06:55:00,46.5,44.3,30.23,NE,37,0.0,0.0,92,0.00,,SCT,0.00,21.00,VWS V14.01,2013-08-04 11:55:00,
2013-08-04 07:00:00,46.7,44.5,30.23,NE,37,0.0,0.0,92,0.00,,SCT,0.00,23.00,VWS V14.01,2013-08-04 12:00:00,
2013-08-04 07:05:00,46.8,44.6,30.23,NE,37,0.0,0.0,92,0.00,,SCT,0.00,25.00,VWS V14.01,2013-08-04 12:05:00,
2013-08-04 07:10:00,46.8,44.6,30.23,NE,37,0.0,0.0,92,0.00,,SCT,0.00,23.00,VWS V14.01,2013-08-04 12:10:00,
2013-08-04 07:16:00,47.0,44.8,30.23,NE,36,0.0,0.0,92,0.00,,SCT,0.00,25.00,VWS V14.01,2013-08-04 12:16:00,
2013-08-04 07:21:00,47.3,45.1,30.23,NE,37,0.0,0.0,92,0.00,,SCT,0.00,28.00,VWS V14.01,2013-08-04 12:21:00,
2013-08-04 07:26:00,47.5,45.3,30.23,NE,36,0.0,0.0,92,0.00,,SCT,0.00,28.00,VWS V14.01,2013-08-04 12:26:00,
2013-08-04 07:31:00,47.7,45.5,30.23,NE,36,0.0,0.0,92,0.00,,SCT,0.00,28.00,VWS V14.01,2013-08-04 12:31:00,
2013-08-04 07:36:00,48.0,46.1,30.23,NE,37,0.0,0.0,93,0.00,,SCT,0.00,32.00,VWS V14.01,2013-08-04 12:36:00,
2013-08-04 07:41:00,48.4,46.5,30.23,NE,37,0.0,0.0,93,0.00,,SCT,0.00,33.00,VWS V14.01,2013-08-04 12:41:00,
2013-08-04 07:46:00,48.8,46.9,30.23,NE,36,0.0,0.0,93,0.00,,SCT,0.00,33.00,VWS V14.01,2013-08-04 12:46:00,
2013-08-04 07:51:00,49.2,47.3,30.23,NE,37,0.0,0.0,93,0.00,,SCT,0.00,35.00,VWS V14.01,2013-08-04 12:51:00,
2013-08-04 07:56:00,49.7,47.8,30.24,NE,37,0.0,0.0,93,0.00,,SCT,0.00,37.00,VWS V14.01,2013-08-04 12:56:00,
2013-08-04 08:01:00,50.3,48.6,30.24,NE,36,0.0,0.0,94,0.00,,SCT,0.00,44.00,VWS V14.01,2013-08-04 13:01:00,
2013-08-04 08:07:00,50.9,49.2,30.24,NE,37,0.0,0.0,94,0.00,,SCT,0.00,42.00,VWS V14.01,2013-08-04 13:07:00,
2013-08-04 08:12:00,51.5,49.8,30.24,NE,37,0.0,0.0,94,0.00,,SCT,0.00,39.00,VWS V14.01,2013-08-04 13:12:00,
2013-08-04 08:17:00,52.1,50.4,30.23,NE,37,0.0,0.0,94,0.00,,SCT,0.00,39.00,VWS V14.01,2013-08-04 13:17:00,
2013-08-04 08:22:00,52.6,50.9,30.23,NE,37,0.0,0.0,94,0.00,,SCT,0.00,44.00,VWS V14.01,2013-08-04 13:22:00,
2013-08-04 08:27:00,53.1,51.4,30.24,NE,37,0.0,0.0,94,0.00,,SCT,0.00,51.00,VWS V14.01,2013-08-04 13:27:00,
2013-08-04 08:32:00,53.6,51.9,30.24,NE,37,0.0,0.0,94,0.00,,SCT,0.00,54.00,VWS V14.01,2013-08-04 13:32:00,
2013-08-04 08:37:00,54.0,52.3,30.23,NE,37,0.0,0.0,94,0.00,,SCT,0.00,62.00,VWS V14.01,2013-08-04 13:37:00,
2013-08-04 08:42:00,54.4,52.7,30.23,NE,37,0.0,0.0,94,0.00,,SCT,0.00,79.00,VWS V14.01,2013-08-04 13:42:00,
2013-08-04 08:48:00,54.8,53.1,30.23,NE,37,0.0,0.0,94,0.00,,SCT,0.00,111.00,VWS V14.01,2013-08-04 13:48:00,
2013-08-04 08:53:00,55.2,53.5,30.23,NE,37,0.0,0.0,94,0.00,,SCT,0.00,120.00,VWS V14.01,2013-08-04 13:53:00,
2013-08-04 08:58:00,55.6,53.9,30.23,NE,37,0.0,0.0,94,0.00,,SCT,0.00,232.00,VWS V14.01,2013-08-04 13:58:00,
2013-08-04 09:03:00,56.0,54.3,30.23,NE,37,0.0,0.0,94,0.00,,SCT,0.00,429.00,VWS V14.01,2013-08-04 14:03:00,
2013-08-04 09:08:00,56.4,54.7,30.23,NNW,344,0.0,0.0,94,0.00,,SCT,0.00,404.00,VWS V14.01,2013-08-04 14:08:00,
2013-08-04 09:13:00,56.4,54.7,30.23,West,264,0.0,0.0,94,0.00,,SCT,0.00,417.00,VWS V14.01,2013-08-04 14:13:00,
2013-08-04 09:18:00,57.0,55.0,30.23,SSW,193,0.0,0.0,93,0.00,,SCT,0.00,483.00,VWS V14.01,2013-08-04 14:18:00,
2013-08-04 09:23:00,57.7,55.4,30.23,SE,138,3.0,3.0,92,0.00,,SCT,0.00,475.00,VWS V14.01,2013-08-04 14:23:00,
2013-08-04 09:28:00,59.0,55.5,30.23,SE,134,0.0,5.0,88,0.00,,SCT,0.00,497.00,VWS V14.01,2013-08-04 14:28:00,
2013-08-04 09:34:00,60.0,54.8,30.23,SE,128,0.0,0.0,83,0.00,,SCT,0.00,510.00,VWS V14.01,2013-08-04 14:34:00,
2013-08-04 09:39:00,61.2,54.6,30.23,WSW,257,0.0,0.0,79,0.00,,SCT,0.00,548.00,VWS V14.01,2013-08-04 14:39:00,
2013-08-04 09:44:00,62.2,53.8,30.24,SW,221,0.0,3.0,74,0.00,,SCT,0.00,589.00,VWS V14.01,2013-08-04 14:44:00,
2013-08-04 09:49:00,63.0,53.1,30.24,SSW,207,0.0,4.0,70,0.00,,SCT,0.00,608.00,VWS V14.01,2013-08-04 14:49:00,
2013-08-04 09:55:00,63.8,53.0,30.24,WSW,250,0.0,6.0,68,0.00,,SCT,0.00,559.00,VWS V14.01,2013-08-04 14:55:00,
2013-08-04 10:00:00,64.1,53.7,30.24,SW,234,0.0,1.0,69,0.00,,SCT,0.00,568.00,VWS V14.01,2013-08-04 15:00:00,
2013-08-04 10:04:00,64.4,52.4,30.24,WSW,241,1.0,3.0,65,0.00,,SCT,0.00,617.00,VWS V14.01,2013-08-04 15:04:00,
2013-08-04 10:10:00,64.6,51.7,30.24,WSW,255,0.0,4.0,63,0.00,,SCT,0.00,531.00,VWS V14.01,2013-08-04 15:10:00,
2013-08-04 10:15:00,64.8,52.3,30.24,SW,236,0.0,4.0,64,0.00,,SCT,0.00,543.00,VWS V14.01,2013-08-04 15:15:00,
2013-08-04 10:21:00,65.0,52.5,30.23,WSW,237,0.0,5.0,64,0.00,,SCT,0.00,580.00,VWS V14.01,2013-08-04 15:21:00,
2013-08-04 10:26:00,65.3,52.8,30.23,WSW,238,0.0,2.0,64,0.00,,SCT,0.00,555.00,VWS V14.01,2013-08-04 15:26:00,
2013-08-04 10:31:00,65.4,52.9,30.23,WSW,240,0.0,4.0,64,0.00,,SCT,0.00,675.00,VWS V14.01,2013-08-04 15:31:00,
2013-08-04 10:36:00,65.6,52.7,30.23,WSW,240,0.0,7.0,63,0.00,,SCT,0.00,519.00,VWS V14.01,2013-08-04 15:36:00,
2013-08-04 10:41:00,65.7,52.3,30.22,WSW,239,0.0,0.0,62,0.00,,SCT,0.00,592.00,VWS V14.01,2013-08-04 15:41:00,
2013-08-04 10:46:00,66.0,52.6,30.22,WSW,239,0.0,0.0,62,0.00,,SCT,0.00,343.00,VWS V14.01,2013-08-04 15:46:00,
2013-08-04 10:51:00,66.2,53.2,30.22,WSW,248,0.0,5.0,63,0.00,,SCT,0.00,717.00,VWS V14.01,2013-08-04 15:51:00,
2013-08-04 10:57:00,66.3,52.9,30.22,WSW,254,0.0,5.0,62,0.00,,SCT,0.00,236.00,VWS V14.01,2013-08-04 15:57:00,
2013-08-04 11:01:00,66.0,52.2,30.22,WSW,256,0.0,3.0,61,0.00,,SCT,0.00,229.00,VWS V14.01,2013-08-04 16:01:00,
2013-08-04 11:07:00,65.8,52.9,30.22,WSW,240,0.0,0.0,63,0.00,,SCT,0.00,283.00,VWS V14.01,2013-08-04 16:07:00,
2013-08-04 11:12:00,65.8,51.5,30.22,WSW,240,0.0,0.0,60,0.00,,SCT,0.00,679.00,VWS V14.01,2013-08-04 16:12:00,
2013-08-04 11:17:00,65.8,51.1,30.22,WSW,240,0.0,0.0,59,0.00,,SCT,0.00,376.00,VWS V14.01,2013-08-04 16:17:00,
2013-08-04 11:22:00,66.0,51.7,30.22,WSW,240,0.0,0.0,60,0.00,,SCT,0.00,613.00,VWS V14.01,2013-08-04 16:22:00,
2013-08-04 11:27:00,66.4,50.2,30.21,WSW,240,0.0,0.0,56,0.00,,SCT,0.00,904.00,VWS V14.01,2013-08-04 16:27:00,
2013-08-04 11:32:00,66.8,50.6,30.21,WSW,240,0.0,0.0,56,0.00,,SCT,0.00,352.00,VWS V14.01,2013-08-04 16:32:00,
2013-08-04 11:38:00,67.1,50.9,30.21,WSW,240,0.0,0.0,56,0.00,,SCT,0.00,691.00,VWS V14.01,2013-08-04 16:38:00,
2013-08-04 11:43:00,67.4,50.7,30.21,WSW,240,0.0,0.0,55,0.00,,SCT,0.00,439.00,VWS V14.01,2013-08-04 16:43:00,
2013-08-04 11:48:00,67.6,50.4,30.20,WSW,240,0.0,0.0,54,0.00,,SCT,0.00,531.00,VWS V14.01,2013-08-04 16:48:00,
2013-08-04 11:53:00,67.9,53.1,30.20,West,259,0.0,5.0,59,0.00,,SCT,0.00,494.00,VWS V14.01,2013-08-04 16:53:00,
2013-08-04 11:58:00,67.9,54.0,30.20,WSW,258,0.0,0.0,61,0.00,,SCT,0.00,366.00,VWS V14.01,2013-08-04 16:58:00,
2013-08-04 12:03:00,67.7,52.4,30.20,WSW,247,0.0,3.0,58,0.00,,SCT,0.00,369.00,VWS V14.01,2013-08-04 17:03:00,
2013-08-04 12:08:00,67.5,52.2,30.20,WSW,245,3.0,4.0,58,0.00,,SCT,0.00,471.00,VWS V14.01,2013-08-04 17:08:00,
2013-08-04 12:13:00,67.5,51.8,30.20,WSW,244,3.0,3.0,57,0.00,,SCT,0.00,520.00,VWS V14.01,2013-08-04 17:13:00,
2013-08-04 12:18:00,67.5,49.8,30.19,WSW,244,0.0,0.0,53,0.00,,SCT,0.00,555.00,VWS V14.01,2013-08-04 17:18:00,
2013-08-04 12:23:00,67.7,49.5,30.19,SSW,197,2.0,3.0,52,0.00,,SCT,0.00,638.00,VWS V14.01,2013-08-04 17:23:00,
2013-08-04 12:28:00,67.8,49.5,30.19,SSW,198,0.0,0.0,52,0.00,,SCT,0.00,726.00,VWS V14.01,2013-08-04 17:28:00,
2013-08-04 12:34:00,67.9,50.2,30.19,SSW,212,0.0,0.0,53,0.00,,SCT,0.00,490.00,VWS V14.01,2013-08-04 17:34:00,
2013-08-04 12:39:00,67.9,49.1,30.19,SSW,213,0.0,0.0,51,0.00,,SCT,0.00,496.00,VWS V14.01,2013-08-04 17:39:00,
2013-08-04 12:44:00,68.1,50.3,30.19,SSW,213,0.0,0.0,53,0.00,,SCT,0.00,464.00,VWS V14.01,2013-08-04 17:44:00,
2013-08-04 12:49:00,68.3,50.5,30.18,SW,223,2.0,4.0,53,0.00,,SCT,0.00,480.00,VWS V14.01,2013-08-04 17:49:00,
2013-08-04 12:54:00,68.5,50.7,30.19,SW,228,2.0,3.0,53,0.00,,SCT,0.00,438.00,VWS V14.01,2013-08-04 17:54:00,
2013-08-04 12:59:00,68.4,50.1,30.18,SW,230,1.0,2.0,52,0.00,,SCT,0.00,399.00,VWS V14.01,2013-08-04 17:59:00,
2013-08-04 13:05:00,68.2,51.9,30.19,WSW,242,6.0,6.0,56,0.00,,SCT,0.00,348.00,VWS V14.01,2013-08-04 18:05:00,
2013-08-04 13:10:00,68.0,51.7,30.18,WNW,289,0.0,6.0,56,0.00,,SCT,0.00,322.00,VWS V14.01,2013-08-04 18:10:00,
2013-08-04 13:15:00,67.8,51.1,30.18,WNW,288,0.0,3.0,55,0.00,,SCT,0.00,281.00,VWS V14.01,2013-08-04 18:15:00,
2013-08-04 13:20:00,67.7,51.9,30.18,West,279,0.0,4.0,57,0.00,,SCT,0.00,186.00,VWS V14.01,2013-08-04 18:20:00,
2013-08-04 13:25:00,67.5,51.8,30.18,West,281,2.0,5.0,57,0.00,,SCT,0.00,192.00,VWS V14.01,2013-08-04 18:25:00,
2013-08-04 13:30:00,67.3,51.1,30.18,West,281,0.0,4.0,56,0.00,,SCT,0.00,290.00,VWS V14.01,2013-08-04 18:30:00,
2013-08-04 13:31:00,67.3,52.0,30.18,West,281,0.0,4.0,58,0.00,,SCT,0.00,290.00,VWS V14.01,2013-08-04 18:31:00,
2013-08-04 13:36:00,67.5,52.7,30.18,West,263,3.0,6.0,59,0.00,,SCT,0.00,986.00,VWS V14.01,2013-08-04 18:36:00,
2013-08-04 13:41:00,67.9,53.5,30.18,WSW,247,0.0,4.0,60,0.00,,SCT,0.00,872.00,VWS V14.01,2013-08-04 18:41:00,
2013-08-04 13:46:00,68.1,51.8,30.18,West,269,0.0,4.0,56,0.00,,SCT,0.00,1030.00,VWS V14.01,2013-08-04 18:46:00,
2013-08-04 13:51:00,68.7,52.9,30.18,North,355,0.0,7.0,57,0.00,,SCT,0.00,988.00,VWS V14.01,2013-08-04 18:51:00,
2013-08-04 13:56:00,69.0,54.5,30.18,West,266,0.0,2.0,60,0.00,,SCT,0.00,243.00,VWS V14.01,2013-08-04 18:56:00,
2013-08-04 14:01:00,68.9,53.1,30.18,West,280,4.0,5.0,57,0.00,,SCT,0.00,265.00,VWS V14.01,2013-08-04 19:01:00,
2013-08-04 14:06:00,68.6,52.3,30.18,West,265,0.0,7.0,56,0.00,,SCT,0.00,367.00,VWS V14.01,2013-08-04 19:06:00,
2013-08-04 14:12:00,68.4,51.1,30.17,WSW,255,4.0,4.0,54,0.00,,SCT,0.00,244.00,VWS V14.01,2013-08-04 19:12:00,
2013-08-04 14:17:00,68.3,51.0,30.17,West,269,0.0,0.0,54,0.00,,SCT,0.00,241.00,VWS V14.01,2013-08-04 19:17:00,
2013-08-04 14:22:00,68.2,52.4,30.17,West,270,0.0,0.0,57,0.00,,SCT,0.00,239.00,VWS V14.01,2013-08-04 19:22:00,
2013-08-04 14:27:00,68.5,51.2,30.17,West,269,0.0,0.0,54,0.00,,SCT,0.00,292.00,VWS V14.01,2013-08-04 19:27:00,
2013-08-04 14:33:00,68.8,51.5,30.17,West,269,0.0,5.0,54,0.00,,SCT,0.00,722.00,VWS V14.01,2013-08-04 19:33:00,
2013-08-04 14:37:00,69.0,50.7,30.17,SSW,200,0.0,2.0,52,0.00,,SCT,0.00,1042.00,VWS V14.01,2013-08-04 19:37:00,
2013-08-04 14:43:00,69.5,52.2,30.16,West,261,0.0,7.0,54,0.00,,SCT,0.00,283.00,VWS V14.01,2013-08-04 19:43:00,
2013-08-04 14:48:00,69.7,51.8,30.16,West,281,10.0,10.0,53,0.00,,SCT,0.00,272.00,VWS V14.01,2013-08-04 19:48:00,
2013-08-04 14:53:00,69.6,51.2,30.16,West,262,0.0,2.0,52,0.00,,SCT,0.00,1056.00,VWS V14.01,2013-08-04 19:53:00,
2013-08-04 14:58:00,69.6,50.7,30.16,WNW,285,6.0,6.0,51,0.00,,SCT,0.00,237.00,VWS V14.01,2013-08-04 19:58:00,
2013-08-04 15:03:00,69.5,51.1,30.16,West,275,0.0,6.0,52,0.00,,SCT,0.00,1037.00,VWS V14.01,2013-08-04 20:03:00,
2013-08-04 15:08:00,69.7,52.3,30.16,West,268,4.0,6.0,54,0.00,,SCT,0.00,919.00,VWS V14.01,2013-08-04 20:08:00,
2013-08-04 15:14:00,69.9,53.0,30.15,WSW,246,2.0,6.0,55,0.00,,SCT,0.00,276.00,VWS V14.01,2013-08-04 20:14:00,
2013-08-04 15:19:00,70.0,53.6,30.15,West,274,6.0,7.0,56,0.00,,SCT,0.00,965.00,VWS V14.01,2013-08-04 20:19:00,
2013-08-04 15:24:00,70.0,53.6,30.15,WSW,251,4.0,5.0,56,0.00,,SCT,0.00,953.00,VWS V14.01,2013-08-04 20:24:00,
2013-08-04 15:29:00,69.8,52.9,30.15,WSW,244,0.0,4.0,55,0.00,,SCT,0.00,195.00,VWS V14.01,2013-08-04 20:29:00,
2013-08-04 15:34:00,69.4,52.5,30.15,SW,232,3.0,6.0,55,0.00,,SCT,0.00,188.00,VWS V14.01,2013-08-04 20:34:00,
2013-08-04 15:40:00,69.1,51.8,30.15,SW,229,0.0,3.0,54,0.00,,SCT,0.00,185.00,VWS V14.01,2013-08-04 20:40:00,
2013-08-04 15:45:00,68.9,54.0,30.14,SW,229,0.0,1.0,59,0.00,,SCT,0.00,183.00,VWS V14.01,2013-08-04 20:45:00,
2013-08-04 15:50:00,68.7,53.3,30.14,SW,229,0.0,0.0,58,0.00,,SCT,0.00,236.00,VWS V14.01,2013-08-04 20:50:00,
2013-08-04 15:55:00,68.6,53.7,30.14,SW,229,0.0,0.0,59,0.00,,SCT,0.00,248.00,VWS V14.01,2013-08-04 20:55:00,
2013-08-04 16:00:00,68.6,52.8,30.14,SW,229,0.0,3.0,57,0.00,,SCT,0.00,341.00,VWS V14.01,2013-08-04 21:00:00,
2013-08-04 16:05:00,68.5,52.7,30.14,SW,233,0.0,4.0,57,0.00,,SCT,0.00,292.00,VWS V14.01,2013-08-04 21:05:00,
2013-08-04 16:10:00,68.5,53.6,30.14,SW,233,0.0,4.0,59,0.00,,SCT,0.00,253.00,VWS V14.01,2013-08-04 21:10:00,
2013-08-04 16:15:00,68.6,53.7,30.13,SW,233,0.0,0.0,59,0.00,,SCT,0.00,211.00,VWS V14.01,2013-08-04 21:15:00,
2013-08-04 16:20:00,68.5,51.7,30.13,SW,233,0.0,0.0,55,0.00,,SCT,0.00,171.00,VWS V14.01,2013-08-04 21:20:00,
2013-08-04 16:25:00,68.6,53.7,30.13,SW,233,0.0,0.0,59,0.00,,SCT,0.00,209.00,VWS V14.01,2013-08-04 21:25:00,
2013-08-04 16:31:00,68.6,53.7,30.13,WSW,248,7.0,7.0,59,0.00,,SCT,0.00,352.00,VWS V14.01,2013-08-04 21:31:00,
2013-08-04 16:36:00,69.0,52.7,30.13,WSW,252,5.0,7.0,56,0.00,,SCT,0.00,842.00,VWS V14.01,2013-08-04 21:36:00,
2013-08-04 16:41:00,69.2,53.8,30.13,SW,236,2.0,11.0,58,0.00,,SCT,0.00,229.00,VWS V14.01,2013-08-04 21:41:00,
2013-08-04 16:46:00,69.2,54.7,30.13,SW,229,0.0,2.0,60,0.00,,SCT,0.00,248.00,VWS V14.01,2013-08-04 21:46:00,
2013-08-04 16:50:00,69.2,53.3,30.13,SW,229,0.0,4.0,57,0.00,,SCT,0.00,301.00,VWS V14.01,2013-08-04 21:50:00,
2013-08-04 16:55:00,69.4,54.5,30.12,ESE,107,0.0,1.0,59,0.00,,SCT,0.00,745.00,VWS V14.01,2013-08-04 21:55:00,
2013-08-04 17:00:00,69.8,54.8,30.12,SSW,200,3.0,7.0,59,0.00,,SCT,0.00,738.00,VWS V14.01,2013-08-04 22:00:00,
2013-08-04 17:05:00,70.2,54.8,30.12,WSW,238,4.0,9.0,58,0.00,,SCT,0.00,693.00,VWS V14.01,2013-08-04 22:05:00,
2013-08-04 17:10:00,70.4,54.9,30.12,WSW,237,6.0,8.0,58,0.00,,SCT,0.00,652.00,VWS V14.01,2013-08-04 22:10:00,
2013-08-04 17:15:00,70.6,54.2,30.12,WSW,254,4.0,8.0,56,0.00,,SCT,0.00,599.00,VWS V14.01,2013-08-04 22:15:00,
2013-08-04 17:21:00,70.6,52.1,30.12,WSW,248,4.0,8.0,52,0.00,,SCT,0.00,575.00,VWS V14.01,2013-08-04 22:21:00,
2013-08-04 17:26:00,70.7,52.8,30.12,SW,218,3.0,5.0,53,0.00,,SCT,0.00,561.00,VWS V14.01,2013-08-04 22:26:00,
2013-08-04 17:31:00,70.8,53.8,30.12,WSW,237,3.0,8.0,55,0.00,,SCT,0.00,392.00,VWS V14.01,2013-08-04 22:31:00,
2013-08-04 17:36:00,70.7,53.8,30.12,SW,236,6.0,10.0,55,0.00,,SCT,0.00,508.00,VWS V14.01,2013-08-04 22:36:00,
2013-08-04 17:41:00,70.7,52.2,30.12,WSW,252,0.0,6.0,52,0.00,,SCT,0.00,506.00,VWS V14.01,2013-08-04 22:41:00,
2013-08-04 17:46:00,70.7,53.8,30.11,WSW,251,5.0,5.0,55,0.00,,SCT,0.00,504.00,VWS V14.01,2013-08-04 22:46:00,
2013-08-04 17:51:00,70.5,52.0,30.11,SW,225,0.0,1.0,52,0.00,,SCT,0.00,294.00,VWS V14.01,2013-08-04 22:51:00,
2013-08-04 17:56:00,70.4,52.0,30.11,WSW,239,5.0,5.0,52,0.00,,SCT,0.00,431.00,VWS V14.01,2013-08-04 22:56:00,
2013-08-04 18:01:00,70.4,53.0,30.11,WSW,240,3.0,4.0,54,0.00,,SCT,0.00,438.00,VWS V14.01,2013-08-04 23:01:00,
2013-08-04 18:06:00,70.1,51.7,30.11,SW,236,5.0,5.0,52,0.00,,SCT,0.00,153.00,VWS V14.01,2013-08-04 23:06:00,
2013-08-04 18:12:00,70.0,53.6,30.10,WSW,248,4.0,4.0,56,0.00,,SCT,0.00,360.00,VWS V14.01,2013-08-04 23:12:00,
2013-08-04 18:17:00,69.8,53.4,30.10,West,271,5.0,5.0,56,0.00,,SCT,0.00,174.00,VWS V14.01,2013-08-04 23:17:00,
2013-08-04 18:22:00,69.5,53.1,30.10,WSW,255,2.0,4.0,56,0.00,,SCT,0.00,125.00,VWS V14.01,2013-08-04 23:22:00,
2013-08-04 18:27:00,69.2,52.8,30.09,WSW,252,1.0,3.0,56,0.00,,SCT,0.00,109.00,VWS V14.01,2013-08-04 23:27:00,
2013-08-04 18:32:00,68.9,52.6,30.09,WSW,254,3.0,4.0,56,0.00,,SCT,0.00,102.00,VWS V14.01,2013-08-04 23:32:00,
2013-08-04 18:38:00,68.7,54.3,30.09,WSW,258,0.0,0.0,60,0.00,,SCT,0.00,105.00,VWS V14.01,2013-08-04 23:38:00,
2013-08-04 18:43:00,68.4,53.5,30.09,WSW,252,0.0,0.0,59,0.00,,SCT,0.00,116.00,VWS V14.01,2013-08-04 23:43:00,
2013-08-04 18:48:00,68.3,53.4,30.09,WSW,252,0.0,0.0,59,0.00,,SCT,0.00,113.00,VWS V14.01,2013-08-04 23:48:00,
2013-08-04 18:53:00,68.1,54.2,30.09,WSW,252,0.0,0.0,61,0.00,,SCT,0.00,114.00,VWS V14.01,2013-08-04 23:53:00,
2013-08-04 18:58:00,68.0,55.0,30.09,WSW,252,0.0,0.0,63,0.00,,SCT,0.00,109.00,VWS V14.01,2013-08-04 23:58:00,
2013-08-04 19:03:00,67.9,54.4,30.09,WSW,252,0.0,0.0,62,0.00,,SCT,0.00,114.00,VWS V14.01,2013-08-05 00:03:00,
2013-08-04 19:08:00,67.8,55.6,30.09,WSW,252,0.0,0.0,65,0.00,,SCT,0.00,220.00,VWS V14.01,2013-08-05 00:08:00,
2013-08-04 19:13:00,67.7,56.0,30.08,WSW,252,0.0,0.0,66,0.00,,SCT,0.00,237.00,VWS V14.01,2013-08-05 00:13:00,
2013-08-04 19:18:00,67.6,56.3,30.08,WSW,252,0.0,0.0,67,0.00,,SCT,0.00,213.00,VWS V14.01,2013-08-05 00:18:00,
2013-08-04 19:24:00,67.5,56.2,30.08,WSW,252,0.0,0.0,67,0.00,,SCT,0.00,169.00,VWS V14.01,2013-08-05 00:24:00,
2013-08-04 19:29:00,67.5,56.2,30.08,WSW,252,0.0,0.0,67,0.00,,SCT,0.00,118.00,VWS V14.01,2013-08-05 00:29:00,
2013-08-04 19:34:00,67.4,55.2,30.07,WSW,252,0.0,0.0,65,0.00,,SCT,0.00,44.00,VWS V14.01,2013-08-05 00:34:00,
2013-08-04 19:40:00,67.2,54.6,30.07,WSW,252,0.0,0.0,64,0.00,,SCT,0.00,40.00,VWS V14.01,2013-08-05 00:40:00,
2013-08-04 19:45:00,67.1,54.5,30.07,SW,234,0.0,1.0,64,0.00,,SCT,0.00,30.00,VWS V14.01,2013-08-05 00:45:00,
2013-08-04 19:50:00,67.0,53.6,30.07,SW,232,0.0,1.0,62,0.00,,SCT,0.00,26.00,VWS V14.01,2013-08-05 00:50:00,
2013-08-04 19:55:00,66.9,55.6,30.07,SW,232,0.0,0.0,67,0.00,,SCT,0.00,23.00,VWS V14.01,2013-08-05 00:55:00,
2013-08-04 20:00:00,66.6,55.3,30.07,SW,232,0.0,0.0,67,0.00,,SCT,0.00,19.00,VWS V14.01,2013-08-05 01:00:00,
2013-08-04 20:05:00,66.2,54.9,30.07,SW,232,0.0,0.0,67,0.00,,SCT,0.00,16.00,VWS V14.01,2013-08-05 01:05:00,
2013-08-04 20:11:00,65.7,54.5,30.07,SW,232,0.0,0.0,67,0.00,,SCT,0.00,12.00,VWS V14.01,2013-08-05 01:11:00,
2013-08-04 20:16:00,65.1,54.3,30.07,SW,232,0.0,0.0,68,0.00,,SCT,0.00,11.00,VWS V14.01,2013-08-05 01:16:00,
2013-08-04 20:21:00,64.6,53.8,30.06,SW,231,0.0,0.0,68,0.00,,SCT,0.00,7.00,VWS V14.01,2013-08-05 01:21:00,
2013-08-04 20:26:00,64.1,53.3,30.06,SW,232,0.0,0.0,68,0.00,,SCT,0.00,5.00,VWS V14.01,2013-08-05 01:26:00,
2013-08-04 20:31:00,63.5,53.5,30.06,SW,232,0.0,0.0,70,0.00,,SCT,0.00,0.00,VWS V14.01,2013-08-05 01:31:00,
2013-08-04 20:36:00,63.1,53.2,30.06,SW,232,0.0,0.0,70,0.00,,SCT,0.00,0.00,VWS V14.01,2013-08-05 01:36:00,
2013-08-04 20:42:00,62.6,53.1,30.06,SW,232,0.0,0.0,71,0.00,,SCT,0.00,0.00,VWS V14.01,2013-08-05 01:42:00,
2013-08-04 20:47:00,62.0,52.9,30.06,SW,232,0.0,0.0,72,0.00,,SCT,0.00,0.00,VWS V14.01,2013-08-05 01:47:00,
2013-08-04 20:52:00,61.4,53.0,30.06,SW,232,0.0,0.0,74,0.00,,SCT,0.00,0.00,VWS V14.01,2013-08-05 01:52:00,
2013-08-04 20:57:00,60.8,52.5,30.07,SW,232,0.0,0.0,74,0.00,,SCT,0.00,0.00,VWS V14.01,2013-08-05 01:57:00,
2013-08-04 21:02:00,60.2,52.6,30.06,SW,232,0.0,0.0,76,0.00,,SCT,0.00,0.00,VWS V14.01,2013-08-05 02:02:00,
2013-08-04 21:07:00,59.7,52.5,30.06,SW,232,0.0,0.0,77,0.00,,SCT,0.00,0.00,VWS V14.01,2013-08-05 02:07:00,
2013-08-04 21:12:00,59.0,52.2,30.06,SW,232,0.0,0.0,78,0.00,,SCT,0.00,0.00,VWS V14.01,2013-08-05 02:12:00,
2013-08-04 21:18:00,58.9,52.4,30.06,SW,231,0.0,0.0,79,0.00,,SCT,0.00,0.00,VWS V14.01,2013-08-05 02:18:00,
2013-08-04 21:23:00,58.5,52.4,30.06,SW,232,0.0,0.0,80,0.00,,SCT,0.00,0.00,VWS V14.01,2013-08-05 02:23:00,
2013-08-04 21:28:00,58.2,52.4,30.06,SW,232,0.0,0.0,81,0.00,,SCT,0.00,0.00,VWS V14.01,2013-08-05 02:28:00,
2013-08-04 21:33:00,58.0,52.5,30.06,SW,232,0.0,0.0,82,0.00,,SCT,0.00,0.00,VWS V14.01,2013-08-05 02:33:00,
2013-08-04 21:38:00,57.8,52.3,30.06,SW,231,0.0,0.0,82,0.00,,SCT,0.00,0.00,VWS V14.01,2013-08-05 02:38:00,
2013-08-04 21:43:00,57.6,52.5,30.06,SW,232,0.0,0.0,83,0.00,,SCT,0.00,0.00,VWS V14.01,2013-08-05 02:43:00,
2013-08-04 21:48:00,57.6,52.8,30.06,SW,231,0.0,0.0,84,0.00,,SCT,0.00,0.00,VWS V14.01,2013-08-05 02:48:00,
2013-08-04 21:53:00,57.5,52.7,30.06,SW,232,0.0,0.0,84,0.00,,SCT,0.00,0.00,VWS V14.01,2013-08-05 02:53:00,
2013-08-04 21:58:00,57.4,52.6,30.06,SW,232,0.0,0.0,84,0.00,,SCT,0.00,0.00,VWS V14.01,2013-08-05 02:58:00,
2013-08-04 22:04:00,57.4,52.6,30.06,SW,232,0.0,0.0,84,0.00,,SCT,0.00,0.00,VWS V14.01,2013-08-05 03:04:00,
2013-08-04 22:09:00,57.3,52.5,30.06,SW,232,0.0,0.0,84,0.00,,SCT,0.00,0.00,VWS V14.01,2013-08-05 03:09:00,
2013-08-04 22:14:00,57.1,52.3,30.06,SW,232,0.0,0.0,84,0.00,,SCT,0.00,0.00,VWS V14.01,2013-08-05 03:14:00,
2013-08-04 22:19:00,56.9,52.4,30.06,SW,232,0.0,0.0,85,0.00,,SCT,0.00,0.00,VWS V14.01,2013-08-05 03:19:00,
2013-08-04 22:25:00,56.7,51.9,30.05,SW,232,0.0,0.0,84,0.00,,SCT,0.00,0.00,VWS V14.01,2013-08-05 03:25:00,
2013-08-04 22:30:00,56.5,52.0,30.05,SW,232,0.0,0.0,85,0.00,,SCT,0.00,0.00,VWS V14.01,2013-08-05 03:30:00,
2013-08-04 22:35:00,56.3,51.9,30.05,SW,232,0.0,0.0,85,0.00,,SCT,0.00,0.00,VWS V14.01,2013-08-05 03:35:00,
2013-08-04 22:40:00,56.1,52.0,30.05,SW,232,0.0,0.0,86,0.00,,SCT,0.00,0.00,VWS V14.01,2013-08-05 03:40:00,
2013-08-04 22:45:00,55.9,51.8,30.05,SW,232,0.0,0.0,86,0.00,,SCT,0.00,0.00,VWS V14.01,2013-08-05 03:45:00,
2013-08-04 22:50:00,55.8,51.7,30.05,SW,232,0.0,0.0,86,0.00,,SCT,0.00,0.00,VWS V14.01,2013-08-05 03:50:00,
2013-08-04 22:55:00,55.6,51.5,30.05,SW,232,0.0,0.0,86,0.00,,SCT,0.00,0.00,VWS V14.01,2013-08-05 03:55:00,
2013-08-04 23:00:00,55.5,51.7,30.05,SW,232,0.0,0.0,87,0.00,,SCT,0.00,0.00,VWS V14.01,2013-08-05 04:00:00,
2013-08-04 23:01:00,55.5,51.7,30.05,SW,232,0.0,0.0,87,0.00,,SCT,0.00,0.00,VWS V14.01,2013-08-05 04:01:00,
2013-08-04 23:02:00,55.5,51.7,30.05,SW,231,0.0,0.0,87,0.00,,SCT,0.00,0.00,VWS V14.01,2013-08-05 04:02:00,
2013-08-04 23:08:00,55.4,51.6,30.05,SW,232,0.0,0.0,87,0.00,,SCT,0.00,0.00,VWS V14.01,2013-08-05 04:08:00,
2013-08-04 23:13:00,55.3,51.5,30.05,SW,232,0.0,0.0,87,0.00,,SCT,0.00,0.00,VWS V14.01,2013-08-05 04:13:00,
2013-08-04 23:18:00,55.2,51.4,30.05,SW,232,0.0,0.0,87,0.00,,SCT,0.00,0.00,VWS V14.01,2013-08-05 04:18:00,
2013-08-04 23:23:00,55.2,51.4,30.05,SW,232,0.0,0.0,87,0.00,,SCT,0.00,0.00,VWS V14.01,2013-08-05 04:23:00,
2013-08-04 23:28:00,55.1,51.3,30.05,SW,232,0.0,0.0,87,0.00,,SCT,0.00,0.00,VWS V14.01,2013-08-05 04:28:00,
2013-08-04 23:33:00,55.1,51.3,30.05,SW,232,0.0,0.0,87,0.00,,SCT,0.00,0.00,VWS V14.01,2013-08-05 04:33:00,
2013-08-04 23:38:00,55.0,51.2,30.05,SW,232,0.0,0.0,87,0.00,,SCT,0.00,0.00,VWS V14.01,2013-08-05 04:38:00,
2013-08-04 23:44:00,54.9,50.8,30.04,SW,232,0.0,0.0,86,0.00,,SCT,0.00,0.00,VWS V14.01,2013-08-05 04:44:00,
2013-08-04 23:49:00,54.8,50.7,30.04,SW,232,0.0,0.0,86,0.00,,SCT,0.00,0.00,VWS V14.01,2013-08-05 04:49:00,
2013-08-04 23:54:00,54.7,50.6,30.03,SW,231,0.0,0.0,86,0.00,,SCT,0.00,0.00,VWS V14.01,2013-08-05 04:54:00,
2013-08-04 23:59:00,54.7,50.6,30.03,SW,232,0.0,0.0,86,0.00,,SCT,0.00,0.00,VWS V14.01,2013-08-05 04:59:00,